Time;durP1;ratioP1;P1;durP2;ratioP2;P2;SDS_P1;SDS_P2;PMS_P1;PMS_P2;Temp;Humidity;BMP_temperature;BMP_pressure;BME280_temperature;BME280_humidity;BME280_pressure;Samples;Min_cycle;Max_cycle;Signal;HPM_P1;HPM_P2
2023/12/30 00:01:41;;;;;;;24.67;14.32;;;;;;;10.23;76.18;99033.22;5092008;28;20406;-48
2023/12/30 00:04:06;;;;;;;18.70;15.25;;;;;;;10.20;76.69;99025.72;5090355;28;20032;-49
2023/12/30 00:06:33;;;;;;;26.05;22.63;;;;;;;10.10;76.63;99019.97;5090413;28;20528;-48
2023/12/30 00:08:59;;;;;;;22.27;16.33;;;;;;;9.91;77.09;99019.63;5090441;28;20111;-49
2023/12/30 00:11:28;;;;;;;19.55;16.08;;;;;;;9.76;77.97;99024.94;5091660;28;20095;-49
2023/12/30 00:13:54;;;;;;;21.55;15.88;;;;;;;9.63;78.32;99016.13;5091572;28;20036;-47
2023/12/30 00:16:19;;;;;;;20.23;14.70;;;;;;;9.53;79.48;99016.41;5090242;28;20047;-46
2023/12/30 00:18:45;;;;;;;17.73;15.07;;;;;;;9.54;79.98;99016.25;5090493;28;20092;-46
2023/12/30 00:21:11;;;;;;;17.60;14.10;;;;;;;9.50;81.02;99009.75;5092604;28;20028;-47
2023/12/30 00:23:39;;;;;;;17.58;13.95;;;;;;;9.49;82.53;99002.06;5094082;28;20024;-46
2023/12/30 00:26:04;;;;;;;25.88;23.23;;;;;;;9.67;82.74;99006.88;5094040;28;20024;-49
2023/12/30 00:28:33;;;;;;;18.98;13.70;;;;;;;9.99;82.33;99003.75;5093878;28;20044;-49
2023/12/30 00:30:59;;;;;;;19.08;13.75;;;;;;;10.24;80.83;99000.75;5095323;28;20048;-49
2023/12/30 00:33:24;;;;;;;21.67;16.67;;;;;;;10.66;80.64;99001.66;5095235;28;20124;-49
2023/12/30 00:35:50;;;;;;;18.15;14.32;;;;;;;10.85;78.23;99008.03;5093921;28;20042;-49
2023/12/30 00:38:16;;;;;;;15.65;13.45;;;;;;;10.89;77.37;99003.22;5093874;28;20432;-49
2023/12/30 00:40:41;;;;;;;16.35;13.93;;;;;;;10.69;75.68;99006.53;5093798;28;20031;-49
2023/12/30 00:43:07;;;;;;;15.80;14.10;;;;;;;10.36;76.30;99011.53;5095095;28;20020;-49
2023/12/30 00:45:33;;;;;;;18.90;14.05;;;;;;;10.02;77.16;99007.84;5094883;28;20032;-49
2023/12/30 00:47:58;;;;;;;19.20;15.02;;;;;;;9.87;78.59;99004.47;5094015;28;20034;-49
2023/12/30 00:50:24;;;;;;;20.42;13.90;;;;;;;9.72;78.63;99017.63;5093677;28;20024;-49
2023/12/30 00:52:50;;;;;;;16.90;13.88;;;;;;;9.57;79.02;99017.66;5094917;28;20099;-48
2023/12/30 00:55:16;;;;;;;20.63;17.27;;;;;;;9.47;79.23;99012.72;5094797;28;20402;-49
2023/12/30 00:57:41;;;;;;;21.65;17.40;;;;;;;9.38;79.16;99017.28;5094755;28;20074;-49
2023/12/30 01:00:08;;;;;;;17.30;14.52;;;;;;;9.24;79.25;99018.13;5094758;28;20016;-49
2023/12/30 01:02:33;;;;;;;17.25;14.52;;;;;;;9.17;79.85;99019.81;5094709;28;20454;-49
2023/12/30 01:04:59;;;;;;;18.15;13.48;;;;;;;9.22;80.03;99020.09;5093559;28;20028;-49
2023/12/30 01:07:25;;;;;;;18.77;14.05;;;;;;;9.14;80.13;99007.13;5093534;28;20107;-49
2023/12/30 01:09:51;;;;;;;20.27;13.20;;;;;;;9.12;80.21;99009.91;5093537;28;20092;-49
2023/12/30 01:12:16;;;;;;;19.63;13.57;;;;;;;9.11;80.21;99008.28;5094461;28;20039;-49
2023/12/30 01:14:42;;;;;;;17.17;12.93;;;;;;;9.08;80.40;99000.00;5093450;28;20229;-49
2023/12/30 01:17:08;;;;;;;13.10;11.52;;;;;;;9.13;80.64;99010.72;5093319;28;20111;-49
2023/12/30 01:19:34;;;;;;;14.80;12.98;;;;;;;9.02;79.53;99021.66;5093366;28;20020;-49
2023/12/30 01:21:59;;;;;;;15.38;12.52;;;;;;;8.73;79.69;99018.03;5094298;28;20074;-48
2023/12/30 01:24:26;;;;;;;13.75;12.32;;;;;;;8.54;80.27;99017.59;5093151;28;20017;-49
2023/12/30 01:26:51;;;;;;;16.13;12.15;;;;;;;8.43;81.03;99023.25;5092959;28;20027;-49
2023/12/30 01:29:17;;;;;;;17.08;11.40;;;;;;;8.45;81.95;99026.50;5093068;28;20190;-49
2023/12/30 01:31:44;;;;;;;15.52;10.80;;;;;;;8.70;82.16;99024.47;5094114;28;20035;-49
2023/12/30 01:34:10;;;;;;;15.95;11.13;;;;;;;8.78;81.18;99032.22;5092068;28;20028;-49
2023/12/30 01:36:35;;;;;;;14.18;11.90;;;;;;;8.74;81.05;99038.00;5094009;28;20512;-49
2023/12/30 01:39:01;;;;;;;16.92;13.00;;;;;;;8.68;80.54;99033.47;5093029;28;20023;-49
2023/12/30 01:41:28;;;;;;;18.92;11.77;;;;;;;8.74;81.06;99043.22;5094208;28;20024;-49
2023/12/30 01:43:54;;;;;;;18.45;11.52;;;;;;;8.99;81.70;99044.59;5093821;28;20024;-49
2023/12/30 01:46:20;;;;;;;13.95;12.43;;;;;;;9.07;81.17;99051.53;5094177;28;20031;-49
2023/12/30 01:48:46;;;;;;;15.93;13.20;;;;;;;8.91;80.08;99059.56;5094135;28;20024;-49
2023/12/30 01:51:12;;;;;;;14.20;11.90;;;;;;;8.72;80.33;99051.25;5092377;28;20106;-49
2023/12/30 01:53:41;;;;;;;15.02;12.60;;;;;;;8.69;80.91;99056.03;5093768;28;20034;-49
2023/12/30 01:56:07;;;;;;;17.48;15.30;;;;;;;8.55;80.59;99055.84;5093596;28;20028;-49
2023/12/30 01:58:34;;;;;;;16.27;12.73;;;;;;;8.59;81.35;99058.91;5075434;28;20028;-49
2023/12/30 02:01:00;;;;;;;16.98;11.50;;;;;;;8.66;81.52;99059.81;5093601;28;20023;-49
2023/12/30 02:03:27;;;;;;;15.88;11.88;;;;;;;8.79;80.75;99061.81;5092495;28;20017;-49
2023/12/30 02:05:53;;;;;;;17.05;15.20;;;;;;;8.75;80.19;99069.22;5093356;28;20039;-49
2023/12/30 02:08:19;;;;;;;15.40;11.95;;;;;;;8.64;79.57;99071.47;5092422;28;20024;-49
2023/12/30 02:10:46;;;;;;;16.50;11.27;;;;;;;8.56;79.99;99075.75;5092314;28;20028;-49
2023/12/30 02:13:11;;;;;;;13.20;11.35;;;;;;;8.56;80.24;99080.19;5093390;28;20043;-49
2023/12/30 02:15:37;;;;;;;16.10;12.98;;;;;;;8.57;80.43;99082.63;5092242;28;20493;-49
2023/12/30 02:18:03;;;;;;;22.58;17.90;;;;;;;8.64;80.51;99085.34;5091884;28;20024;-49
2023/12/30 02:20:30;;;;;;;18.70;13.13;;;;;;;8.64;80.26;99085.34;5091876;28;20024;-49
2023/12/30 02:22:56;;;;;;;23.02;17.13;;;;;;;8.65;80.22;99088.78;5093159;28;20020;-49
2023/12/30 02:25:22;;;;;;;26.63;23.67;;;;;;;8.70;80.10;99097.72;5091925;28;20030;-49
2023/12/30 02:27:48;;;;;;;13.10;11.60;;;;;;;8.73;79.71;99092.16;5092821;28;20131;-50
2023/12/30 02:30:15;;;;;;;12.48;10.77;;;;;;;8.83;79.94;99091.84;5091880;28;20024;-49
2023/12/30 02:32:41;;;;;;;13.35;10.65;;;;;;;8.91;79.58;99086.53;5093002;28;20397;-49
2023/12/30 02:35:08;;;;;;;20.80;12.95;;;;;;;9.03;79.64;99076.44;5091544;28;20040;-49
2023/12/30 02:37:34;;;;;;;14.25;11.68;;;;;;;9.01;78.00;99081.03;5092918;28;20024;-49
2023/12/30 02:39:59;;;;;;;18.15;13.18;;;;;;;8.86;78.80;99080.25;5092898;28;20401;-49
2023/12/30 02:42:25;;;;;;;15.50;10.75;;;;;;;8.74;79.81;99087.72;5091445;28;20265;-49
2023/12/30 02:44:51;;;;;;;19.70;16.63;;;;;;;8.66;80.80;99074.72;5091182;28;20393;-49
2023/12/30 02:47:17;;;;;;;13.30;11.30;;;;;;;8.76;82.01;99070.84;5092629;28;20036;-49
2023/12/30 02:49:45;;;;;;;18.50;11.82;;;;;;;8.76;81.69;99073.44;5091720;28;20038;-49
2023/12/30 02:52:11;;;;;;;13.27;10.50;;;;;;;8.94;81.46;99074.94;5092514;28;20020;-49
2023/12/30 02:54:37;;;;;;;28.58;22.08;;;;;;;9.14;80.46;99080.44;5092608;28;20054;-49
2023/12/30 02:57:03;;;;;;;18.50;16.15;;;;;;;9.18;79.69;99079.06;5092526;28;20028;-49
2023/12/30 02:59:30;;;;;;;68.82;61.35;;;;;;;9.14;79.27;99075.19;5092770;28;20545;-49
2023/12/30 03:01:56;;;;;;;28.73;24.88;;;;;;;9.00;78.96;99074.19;5091395;28;20028;-49
2023/12/30 03:04:22;;;;;;;17.70;14.13;;;;;;;9.01;79.35;99067.97;5092328;28;20027;-49
2023/12/30 03:06:49;;;;;;;19.75;17.00;;;;;;;9.09;78.47;99061.81;5092338;28;20028;-49
2023/12/30 03:09:14;;;;;;;22.40;16.35;;;;;;;9.16;78.07;99063.53;5091050;28;20393;-49
2023/12/30 03:11:42;;;;;;;19.48;15.90;;;;;;;9.27;77.62;99067.50;5092205;28;20074;-49
2023/12/30 03:14:08;;;;;;;14.00;12.55;;;;;;;9.23;77.52;99055.75;5090905;28;20024;-49
2023/12/30 03:16:34;;;;;;;18.67;16.58;;;;;;;9.26;77.26;99052.78;5091131;28;20504;-49
2023/12/30 03:19:00;;;;;;;19.73;12.95;;;;;;;9.25;76.34;99066.88;5092214;28;20028;-49
2023/12/30 03:21:26;;;;;;;20.42;12.23;;;;;;;9.02;76.34;99058.31;5092099;28;20032;-49
2023/12/30 03:23:52;;;;;;;14.48;11.50;;;;;;;8.88;76.97;99057.31;5092011;28;20364;-49
2023/12/30 03:26:17;;;;;;;13.32;11.93;;;;;;;8.70;77.13;99053.25;5092003;28;20028;-49
2023/12/30 03:28:46;;;;;;;15.02;11.70;;;;;;;8.53;77.69;99062.22;5090666;28;20124;-49
2023/12/30 03:31:27;;;;;;;17.10;12.13;;;;;;;8.27;78.43;99066.03;5092038;28;20020;-49
2023/12/30 03:33:53;;;;;;;15.02;12.52;;;;;;;8.14;79.47;99056.16;5090698;28;20040;-49
2023/12/30 03:36:19;;;;;;;15.38;13.70;;;;;;;8.18;80.18;99060.03;5092175;28;20050;-49
2023/12/30 03:38:48;;;;;;;16.05;12.57;;;;;;;8.08;79.63;99050.81;5091899;28;20508;-49
2023/12/30 03:41:14;;;;;;;18.30;11.93;;;;;;;7.91;79.91;99060.59;5090621;28;20055;-49
2023/12/30 03:43:40;;;;;;;16.48;12.60;;;;;;;7.78;80.97;99054.09;5091827;28;20027;-49
2023/12/30 03:46:05;;;;;;;13.57;10.70;;;;;;;7.89;81.85;99049.50;5092116;28;20432;-49
2023/12/30 03:48:32;;;;;;;13.00;11.15;;;;;;;8.07;81.05;99052.63;5091773;28;20042;-49
2023/12/30 03:50:58;;;;;;;16.77;12.48;;;;;;;8.15;80.66;99036.88;5092002;28;20396;-49
2023/12/30 03:53:23;;;;;;;13.13;10.88;;;;;;;8.10;80.14;99048.84;5090429;28;20028;-49
2023/12/30 03:55:49;;;;;;;14.52;13.00;;;;;;;7.99;80.06;99034.38;5092392;28;20024;-49
2023/12/30 03:58:15;;;;;;;15.00;10.85;;;;;;;7.97;80.68;99041.59;5094860;28;20584;-49
2023/12/30 04:00:41;;;;;;;15.52;11.70;;;;;;;7.85;80.32;99038.56;5094546;28;20081;-49
2023/12/30 04:03:07;;;;;;;14.23;11.60;;;;;;;7.71;81.20;99050.56;5095780;28;20028;-49
2023/12/30 04:05:32;;;;;;;14.07;11.43;;;;;;;7.79;82.64;99049.72;5095965;28;20116;-49
2023/12/30 04:07:58;;;;;;;12.85;10.13;;;;;;;7.99;83.31;99037.00;5095790;28;20520;-49
2023/12/30 04:10:24;;;;;;;12.93;10.20;;;;;;;8.07;81.80;99041.31;5094667;28;20158;-48
2023/12/30 04:12:50;;;;;;;14.73;12.50;;;;;;;7.93;80.46;99035.91;5095718;28;20398;-49
2023/12/30 04:15:16;;;;;;;18.95;13.77;;;;;;;7.96;80.66;99032.91;5095908;28;20497;-49
2023/12/30 04:17:41;;;;;;;13.50;12.10;;;;;;;7.86;79.87;99028.91;5094548;28;20028;-49
2023/12/30 04:20:07;;;;;;;14.73;11.43;;;;;;;7.80;80.43;99028.63;5094483;28;20016;-49
2023/12/30 04:22:34;;;;;;;12.60;11.07;;;;;;;7.76;80.35;99019.50;5094455;28;20082;-49
2023/12/30 04:25:00;;;;;;;16.65;12.73;;;;;;;7.94;81.05;99019.22;5095383;28;20095;-49
2023/12/30 04:27:26;;;;;;;12.57;10.65;;;;;;;8.04;80.04;99021.59;5094924;28;20044;-50
2023/12/30 04:29:52;;;;;;;11.98;10.23;;;;;;;8.03;79.60;99025.22;5095529;28;20443;-49
2023/12/30 04:32:20;;;;;;;11.55;10.15;;;;;;;8.00;79.44;99013.28;5094280;28;20028;-49
2023/12/30 04:34:46;;;;;;;15.30;10.52;;;;;;;8.07;79.32;99023.03;5094209;28;20038;-49
2023/12/30 04:37:14;;;;;;;14.20;11.18;;;;;;;8.02;79.33;99014.91;5094185;28;20024;-49
2023/12/30 04:39:39;;;;;;;10.90;9.73;;;;;;;7.99;79.35;99019.50;5094240;28;20047;-49
2023/12/30 04:42:05;;;;;;;14.23;10.93;;;;;;;7.84;78.64;99028.28;5095119;28;20490;-49
2023/12/30 04:44:31;;;;;;;11.32;9.40;;;;;;;7.69;79.39;99028.22;5095099;28;20096;-49
2023/12/30 04:46:57;;;;;;;15.38;12.55;;;;;;;7.61;80.41;99023.84;5094037;28;20059;-49
2023/12/30 04:49:23;;;;;;;27.88;24.00;;;;;;;7.74;79.84;99025.88;5094976;28;20038;-49
2023/12/30 04:51:48;;;;;;;15.85;11.80;;;;;;;7.80;80.53;99018.16;5094916;28;20501;-49
2023/12/30 04:54:14;;;;;;;13.20;9.18;;;;;;;7.97;80.74;99023.28;5093618;28;20039;-49
2023/12/30 04:56:40;;;;;;;12.27;10.65;;;;;;;7.92;79.17;99021.19;5093589;28;20024;-49
2023/12/30 04:59:06;;;;;;;14.82;10.05;;;;;;;7.72;78.84;99031.28;5093548;28;20028;-49
2023/12/30 05:01:31;;;;;;;11.82;10.48;;;;;;;7.47;78.74;99024.59;5094797;28;20034;-49
2023/12/30 05:03:57;;;;;;;12.73;9.40;;;;;;;7.32;80.35;99030.53;5093446;28;20032;-49
2023/12/30 05:06:24;;;;;;;13.77;12.38;;;;;;;7.36;81.03;99024.00;5093390;28;20405;-49
2023/12/30 05:08:51;;;;;;;14.52;9.75;;;;;;;7.48;80.82;99023.59;5093500;28;20028;-49
2023/12/30 05:11:17;;;;;;;11.13;9.20;;;;;;;7.64;81.39;99022.69;5093588;28;20417;-49
2023/12/30 05:13:46;;;;;;;20.20;15.77;;;;;;;7.91;80.19;99018.78;5094611;28;20176;-49
2023/12/30 05:16:12;;;;;;;11.50;8.48;;;;;;;7.98;77.55;99011.84;5094512;28;20020;-49
2023/12/30 05:18:37;;;;;;;15.63;10.05;;;;;;;7.89;78.12;99015.53;5094464;28;20031;-49
2023/12/30 05:21:03;;;;;;;11.77;9.07;;;;;;;7.81;77.51;99021.59;5094310;28;20036;-49
2023/12/30 05:23:32;;;;;;;10.43;9.02;;;;;;;7.54;78.03;99025.53;5093089;28;20078;-49
2023/12/30 05:25:57;;;;;;;14.00;11.50;;;;;;;7.36;79.03;99031.00;5093234;28;20028;-49
2023/12/30 05:28:23;;;;;;;15.00;13.27;;;;;;;7.28;79.31;99024.00;5092827;28;20136;-49
2023/12/30 05:30:49;;;;;;;14.70;10.23;;;;;;;7.14;79.69;99032.56;5093119;28;20031;-49
2023/12/30 05:33:15;;;;;;;11.32;10.13;;;;;;;7.09;80.54;99029.66;5094403;28;20031;-49
2023/12/30 05:35:40;;;;;;;13.38;11.07;;;;;;;6.93;81.07;99041.78;5094086;28;20111;-49
2023/12/30 05:38:06;;;;;;;15.73;10.57;;;;;;;6.98;81.61;99034.28;5092781;28;20024;-49
2023/12/30 05:40:32;;;;;;;18.52;12.35;;;;;;;7.05;81.42;99033.59;5094006;28;20095;-49
2023/12/30 05:42:57;;;;;;;18.95;11.73;;;;;;;7.09;81.32;99034.88;5092656;28;20031;-49
2023/12/30 05:45:23;;;;;;;13.68;9.70;;;;;;;7.06;81.35;99030.00;5093829;28;20024;-49
2023/12/30 05:47:49;;;;;;;13.93;10.75;;;;;;;6.99;81.38;99025.44;5093914;28;20573;-49
2023/12/30 05:50:15;;;;;;;15.77;10.13;;;;;;;6.92;81.31;99027.13;5093870;28;20024;-49
2023/12/30 05:52:40;;;;;;;20.25;13.38;;;;;;;6.85;81.37;99025.34;5094121;28;20028;-49
2023/12/30 05:55:06;;;;;;;12.27;10.38;;;;;;;6.75;81.31;99022.94;5092386;28;20555;-49
2023/12/30 05:57:32;;;;;;;12.88;10.18;;;;;;;6.65;82.11;99025.72;5092418;28;20031;-49
2023/12/30 05:59:58;;;;;;;15.35;10.43;;;;;;;6.59;81.97;99021.97;5093709;28;20024;-49
2023/12/30 06:02:24;;;;;;;12.30;10.25;;;;;;;6.50;82.07;99028.19;5093572;28;20160;-49
2023/12/30 06:04:49;;;;;;;13.93;11.90;;;;;;;6.38;82.67;99022.50;5093567;28;20013;-49
2023/12/30 06:07:15;;;;;;;13.02;11.60;;;;;;;6.32;82.82;99025.78;5092152;28;20032;-49
2023/12/30 06:09:44;;;;;;;12.32;10.95;;;;;;;6.45;83.91;99020.03;5092407;28;20031;-49
2023/12/30 06:12:10;;;;;;;13.82;10.80;;;;;;;6.57;83.77;99025.72;5092039;28;20569;-49
2023/12/30 06:14:36;;;;;;;10.68;9.15;;;;;;;6.63;83.06;99013.81;5092083;28;20146;-49
2023/12/30 06:17:02;;;;;;;11.55;9.52;;;;;;;6.54;82.88;99019.06;5093306;28;20016;-49
2023/12/30 06:19:28;;;;;;;17.27;9.80;;;;;;;6.39;81.95;99018.09;5091403;28;20020;-49
2023/12/30 06:21:54;;;;;;;13.05;10.23;;;;;;;6.28;82.64;99027.09;5093309;28;20029;-49
2023/12/30 06:24:21;;;;;;;14.15;9.85;;;;;;;6.24;83.09;99025.78;5091859;28;20024;-49
2023/12/30 06:26:46;;;;;;;13.43;9.85;;;;;;;6.26;83.77;99036.03;5093111;28;20069;-49
2023/12/30 06:29:12;;;;;;;12.68;10.50;;;;;;;6.32;83.44;99041.41;5091690;28;20086;-49
2023/12/30 06:31:42;;;;;;;11.25;9.10;;;;;;;6.32;83.38;99046.63;5091714;28;20522;-49
2023/12/30 06:34:09;;;;;;;11.10;8.75;;;;;;;6.32;83.20;99044.03;5093036;28;20098;-49
2023/12/30 06:36:35;;;;;;;10.73;9.00;;;;;;;6.33;83.07;99048.25;5091675;28;20119;-49
2023/12/30 06:39:00;;;;;;;111.20;99.63;;;;;;;6.36;83.12;99054.94;5091644;28;20127;-49
2023/12/30 06:41:26;;;;;;;42.45;37.88;;;;;;;6.27;82.48;99056.72;5092878;28;20020;-49
2023/12/30 06:43:52;;;;;;;18.05;15.48;;;;;;;6.22;82.79;99053.78;5092704;28;20032;-49
2023/12/30 06:46:19;;;;;;;44.10;39.38;;;;;;;6.16;83.56;99046.63;5092777;28;20047;-48
2023/12/30 06:48:46;;;;;;;13.20;11.55;;;;;;;6.19;83.54;99054.09;5091487;28;20035;-49
2023/12/30 06:51:11;;;;;;;15.23;11.80;;;;;;;6.24;82.80;99049.25;5091372;28;20020;-49
2023/12/30 06:53:37;;;;;;;14.98;10.00;;;;;;;6.28;83.52;99055.75;5091369;28;20039;-49
2023/12/30 06:56:04;;;;;;;11.57;9.65;;;;;;;6.34;82.99;99051.69;5091241;28;20032;-49
2023/12/30 06:58:30;;;;;;;11.40;9.57;;;;;;;6.56;83.63;99047.56;5091246;28;20024;-49
2023/12/30 07:00:56;;;;;;;16.65;13.48;;;;;;;6.42;81.26;99054.28;5092568;28;20035;-49
2023/12/30 07:03:23;;;;;;;12.45;10.95;;;;;;;6.26;82.07;99054.25;5092510;28;20073;-49
2023/12/30 07:05:48;;;;;;;15.05;11.00;;;;;;;6.31;81.51;99046.78;5092397;28;20069;-49
2023/12/30 07:08:14;;;;;;;11.05;9.63;;;;;;;6.32;80.89;99053.63;5074192;28;20032;-49
2023/12/30 07:10:40;;;;;;;14.45;12.00;;;;;;;6.20;81.28;99055.75;5092339;28;20020;-49
2023/12/30 07:13:06;;;;;;;11.52;9.57;;;;;;;6.17;81.83;99050.84;5092310;28;20026;-49
2023/12/30 07:15:32;;;;;;;13.32;10.25;;;;;;;6.12;82.28;99043.53;5091021;28;20028;-49
2023/12/30 07:17:58;;;;;;;15.60;14.00;;;;;;;6.17;82.76;99043.03;5092220;28;20066;-49
2023/12/30 07:20:26;;;;;;;15.35;11.57;;;;;;;6.28;82.63;99041.88;5092147;28;20486;-49
2023/12/30 07:22:56;;;;;;;12.70;10.38;;;;;;;6.30;81.80;99038.16;5091144;28;20478;-49
2023/12/30 07:25:22;;;;;;;12.02;10.55;;;;;;;6.17;80.81;99035.22;5090747;28;20059;-49
2023/12/30 07:27:49;;;;;;;11.57;10.30;;;;;;;5.99;81.53;99032.78;5090607;28;20460;-49
2023/12/30 07:30:15;;;;;;;11.82;9.88;;;;;;;6.13;82.76;99036.53;5090342;28;20024;-49
2023/12/30 07:32:40;;;;;;;11.73;10.48;;;;;;;6.23;82.11;99029.34;5091724;28;20035;-49
2023/12/30 07:35:07;;;;;;;12.45;10.98;;;;;;;6.30;81.87;99024.28;5092243;28;20070;-49
2023/12/30 07:37:34;;;;;;;14.90;11.98;;;;;;;6.31;82.05;99034.56;5090855;28;20027;-49
2023/12/30 07:40:02;;;;;;;13.95;12.00;;;;;;;6.62;81.94;99027.84;5091811;28;20082;-49
2023/12/30 07:42:28;;;;;;;22.40;19.30;;;;;;;7.15;81.84;99027.19;5092134;28;20107;-49
2023/12/30 07:44:54;;;;;;;15.35;10.00;;;;;;;7.59;80.14;99036.28;5090759;28;20549;-49
2023/12/30 07:47:19;;;;;;;13.45;11.32;;;;;;;7.92;78.40;99030.84;5090502;28;20092;-47
2023/12/30 07:49:46;;;;;;;16.27;10.57;;;;;;;8.27;76.99;99028.59;5091867;28;20036;-47
2023/12/30 07:52:12;;;;;;;14.50;10.40;;;;;;;8.72;76.07;99030.31;5091790;28;20024;-49
2023/12/30 07:54:38;;;;;;;11.10;8.55;;;;;;;8.89;74.47;99025.72;5107423;28;20039;-49
2023/12/30 07:57:04;;;;;;;16.27;14.25;;;;;;;8.88;73.78;99036.38;5091737;28;20028;-49
2023/12/30 07:59:30;;;;;;;11.38;10.20;;;;;;;8.66;72.70;99035.47;5090430;28;20484;-50
2023/12/30 08:01:56;;;;;;;13.77;10.15;;;;;;;8.42;72.13;99034.69;5090436;28;20533;-49
2023/12/30 08:04:25;;;;;;;9.88;8.80;;;;;;;8.26;72.54;99033.00;5091778;28;20367;-49
2023/12/30 08:06:51;;;;;;;13.52;10.88;;;;;;;8.14;73.07;99037.03;5091630;28;20028;-49
2023/12/30 08:09:17;;;;;;;15.60;9.82;;;;;;;8.08;72.32;99035.13;5091673;28;20397;-49
2023/12/30 08:11:43;;;;;;;13.13;9.15;;;;;;;7.86;72.62;99028.91;5091642;28;20275;-49
2023/12/30 08:14:09;;;;;;;13.10;9.55;;;;;;;7.90;74.25;99025.78;5091622;28;20462;-49
2023/12/30 08:16:36;;;;;;;18.23;11.70;;;;;;;8.17;74.07;99026.25;5091615;28;20024;-49
2023/12/30 08:19:05;;;;;;;11.70;9.27;;;;;;;8.40;73.79;99018.34;5090282;28;20508;-49
2023/12/30 08:21:31;;;;;;;11.27;9.02;;;;;;;8.46;72.97;99025.50;5091610;28;20050;-49
2023/12/30 08:23:58;;;;;;;11.55;9.35;;;;;;;8.66;73.31;99017.97;5091403;28;20539;-49
2023/12/30 08:26:27;;;;;;;11.55;10.15;;;;;;;9.19;73.24;99013.44;5090169;28;20566;-49
2023/12/30 08:28:57;;;;;;;11.40;9.23;;;;;;;10.35;71.09;99012.56;5089928;28;20051;-49
2023/12/30 08:31:22;;;;;;;9.52;8.32;;;;;;;11.42;67.24;99007.88;5091448;28;20429;-49
2023/12/30 08:33:51;;;;;;;14.82;9.52;;;;;;;12.21;64.62;99009.81;5090202;28;20024;-49
2023/12/30 08:36:16;;;;;;;10.43;8.35;;;;;;;13.28;61.63;99001.66;5090447;28;20028;-49
2023/12/30 08:38:43;;;;;;;8.80;7.90;;;;;;;13.96;58.77;99006.38;5091380;28;20567;-49
2023/12/30 08:41:14;;;;;;;12.60;9.40;;;;;;;14.51;56.85;99003.88;5091387;28;20024;-49
2023/12/30 08:43:42;;;;;;;10.82;8.32;;;;;;;14.90;53.93;98995.81;5094798;28;20047;-47
2023/12/30 08:46:08;;;;;;;10.52;8.40;;;;;;;15.38;53.31;99005.59;5094987;28;20020;-47
2023/12/30 08:48:34;;;;;;;11.15;9.27;;;;;;;15.89;51.79;99006.13;5095026;28;20028;-47
2023/12/30 08:50:59;;;;;;;9.32;8.20;;;;;;;16.41;50.74;99001.00;5095008;28;20107;-47
2023/12/30 08:53:25;;;;;;;14.02;8.48;;;;;;;16.79;49.58;98999.72;5093631;28;20031;-47
2023/12/30 08:55:55;;;;;;;10.98;8.57;;;;;;;17.14;48.41;99001.50;5093588;28;20039;-47
2023/12/30 08:58:23;;;;;;;12.40;8.75;;;;;;;17.45;47.00;99000.25;5094928;28;20496;-46
2023/12/30 09:00:49;;;;;;;9.45;7.93;;;;;;;17.65;45.88;99007.78;5094875;28;20162;-46
2023/12/30 09:03:15;;;;;;;9.32;8.43;;;;;;;17.62;45.33;99013.56;5094737;28;20099;-47
2023/12/30 09:05:41;;;;;;;11.10;10.10;;;;;;;17.62;44.82;99010.09;5094676;28;20103;-47
2023/12/30 09:08:07;;;;;;;14.55;10.68;;;;;;;17.68;44.31;99007.28;5094910;28;20032;-47
2023/12/30 09:10:32;;;;;;;9.07;8.13;;;;;;;17.92;43.86;99010.66;5093337;28;20115;-47
2023/12/30 09:12:59;;;;;;;8.82;7.72;;;;;;;18.14;42.74;99010.75;5094622;28;20058;-47
2023/12/30 09:15:25;;;;;;;8.13;7.30;;;;;;;18.39;41.92;99001.56;5094543;28;20032;-47
2023/12/30 09:17:51;;;;;;;11.25;10.13;;;;;;;18.79;41.02;98999.69;5076339;28;20101;-47
2023/12/30 09:20:17;;;;;;;8.05;7.28;;;;;;;19.10;40.27;98995.59;5094427;28;20024;-47
2023/12/30 09:22:43;;;;;;;9.68;8.77;;;;;;;19.31;39.76;99000.09;5094431;28;20024;-47
2023/12/30 09:25:09;;;;;;;8.23;7.43;;;;;;;19.58;39.29;99001.16;5092892;28;20027;-47
2023/12/30 09:27:34;;;;;;;10.52;9.40;;;;;;;19.92;38.47;98991.09;5093075;28;20040;-47
2023/12/30 09:30:00;;;;;;;10.02;7.63;;;;;;;20.46;37.77;99000.81;5092956;28;20035;-46
2023/12/30 09:32:26;;;;;;;9.23;7.80;;;;;;;20.86;37.14;99002.16;5094233;28;20024;-47
2023/12/30 09:34:53;;;;;;;8.80;6.82;;;;;;;21.28;36.08;98994.03;5092931;28;20031;-47
2023/12/30 09:37:19;;;;;;;10.45;9.35;;;;;;;21.63;35.23;98995.22;5092838;28;20051;-47
2023/12/30 09:39:47;;;;;;;22.02;15.48;;;;;;;22.15;34.88;98993.34;5094055;28;20016;-48
2023/12/30 09:42:12;;;;;;;14.15;12.70;;;;;;;22.67;34.32;98986.06;5094083;28;20024;-48
2023/12/30 09:44:39;;;;;;;9.02;7.28;;;;;;;22.98;33.36;98986.75;5092659;28;20401;-47
2023/12/30 09:47:11;;;;;;;8.00;6.32;;;;;;;23.18;32.69;98988.56;5093891;28;20567;-48
2023/12/30 09:49:37;;;;;;;10.38;6.60;;;;;;;23.18;32.50;98996.59;5094025;28;20016;-48
2023/12/30 09:52:06;;;;;;;11.52;7.00;;;;;;;23.37;32.25;98990.59;5093909;28;20078;-48
2023/12/30 09:54:36;;;;;;;7.70;6.68;;;;;;;23.75;31.63;98986.31;5091696;28;20021;-48
2023/12/30 09:57:05;;;;;;;7.72;6.95;;;;;;;23.80;31.16;98988.19;5093893;28;20103;-48
2023/12/30 09:59:35;;;;;;;7.32;6.57;;;;;;;23.63;31.50;98985.88;5093792;28;20065;-46
2023/12/30 10:02:03;;;;;;;7.93;6.82;;;;;;;23.47;31.95;98985.97;5093742;28;20020;-46
2023/12/30 10:04:29;;;;;;;7.88;6.95;;;;;;;23.50;31.75;98987.28;5092529;28;20020;-46
2023/12/30 10:06:55;;;;;;;7.97;6.63;;;;;;;23.42;31.25;98983.34;5093681;28;20039;-46
2023/12/30 10:09:22;;;;;;;6.50;5.90;;;;;;;23.10;31.74;98987.25;5093585;28;20077;-46
2023/12/30 10:11:49;;;;;;;6.88;6.20;;;;;;;23.21;32.10;98979.19;5093440;28;20074;-48
2023/12/30 10:14:15;;;;;;;6.22;5.63;;;;;;;23.61;31.94;98975.44;5093436;28;20024;-48
2023/12/30 10:16:41;;;;;;;6.25;5.10;;;;;;;24.05;31.51;98977.25;5092031;28;20028;-48
2023/12/30 10:19:11;;;;;;;7.50;5.55;;;;;;;24.42;31.17;98970.47;5093297;28;20402;-48
2023/12/30 10:21:37;;;;;;;6.50;5.90;;;;;;;24.66;31.08;98961.66;5091960;28;20501;-48
2023/12/30 10:24:04;;;;;;;7.57;6.78;;;;;;;24.84;30.64;98960.88;5093129;28;20031;-48
2023/12/30 10:26:31;;;;;;;6.68;5.88;;;;;;;25.03;30.37;98952.06;5093221;28;20035;-48
2023/12/30 10:29:00;;;;;;;13.43;12.05;;;;;;;25.17;30.44;98952.94;5093041;28;20040;-48
2023/12/30 10:31:26;;;;;;;10.75;8.25;;;;;;;25.45;29.98;98947.72;5092991;28;20028;-48
2023/12/30 10:33:53;;;;;;;9.60;6.90;;;;;;;25.19;29.86;98947.28;5092035;28;20035;-46
2023/12/30 10:36:19;;;;;;;12.60;10.70;;;;;;;24.86;30.15;98944.50;5093251;28;20016;-46
2023/12/30 10:38:46;;;;;;;9.63;6.68;;;;;;;24.73;30.48;98946.00;5091721;28;20020;-46
2023/12/30 10:41:15;;;;;;;6.95;5.97;;;;;;;24.66;30.53;98938.28;5092869;28;20028;-46
2023/12/30 10:43:41;;;;;;;7.53;6.78;;;;;;;24.43;30.54;98941.75;5092869;28;20107;-46
2023/12/30 10:46:11;;;;;;;7.28;6.68;;;;;;;24.26;31.18;98937.63;5092742;28;20545;-46
2023/12/30 10:48:46;;;;;;;14.40;6.70;;;;;;;24.01;31.28;98930.66;5092777;28;20020;-46
2023/12/30 10:51:15;;;;;;;7.72;6.68;;;;;;;23.87;31.88;98919.00;5091440;28;20134;-47
2023/12/30 10:53:45;;;;;;;8.88;6.30;;;;;;;23.62;32.55;98926.09;5091399;28;20127;-46
2023/12/30 10:56:15;;;;;;;6.22;5.63;;;;;;;23.51;32.72;98916.56;5092617;28;20024;-47
2023/12/30 10:58:42;;;;;;;7.03;6.43;;;;;;;23.72;32.83;98909.97;5091398;28;20059;-46
2023/12/30 11:01:09;;;;;;;9.02;6.03;;;;;;;24.38;32.04;98906.94;5092551;28;20404;-46
2023/12/30 11:03:35;;;;;;;7.10;6.40;;;;;;;24.99;30.81;98900.84;5092530;28;20490;-46
2023/12/30 11:06:09;;;;;;;6.45;5.85;;;;;;;25.31;30.45;98900.13;5092283;28;20453;-46
2023/12/30 11:08:36;;;;;;;8.27;6.55;;;;;;;25.77;29.99;98889.69;5092443;28;20077;-46
2023/12/30 11:11:04;;;;;;;6.80;6.20;;;;;;;26.10;29.72;98890.50;5092410;28;20501;-46
2023/12/30 11:13:37;;;;;;;7.03;6.35;;;;;;;26.17;29.25;98877.44;5092666;28;20494;-46
2023/12/30 11:16:19;;;;;;;7.60;6.90;;;;;;;26.17;29.81;98874.72;5092535;28;20020;-47
2023/12/30 11:18:48;;;;;;;9.50;6.78;;;;;;;26.08;29.37;98871.94;5091001;28;20451;-46
2023/12/30 11:21:42;;;;;;;7.15;6.45;;;;;;;25.79;30.16;98868.69;5091151;28;20081;-46
2023/12/30 11:24:12;;;;;;;8.93;6.95;;;;;;;25.58;29.98;98862.88;5092113;28;20058;-46